Time;durP1;ratioP1;P1;durP2;ratioP2;P2;SDS_P1;SDS_P2;PMS_P1;PMS_P2;Temp;Humidity;BMP_temperature;BMP_pressure;BME280_temperature;BME280_humidity;BME280_pressure;Samples;Min_cycle;Max_cycle;Signal;HPM_P1;HPM_P2
2022/07/21 00:00:17;;;;;;;3.58;2.05;;;;;;;;;;5134968;27;20035;-76
2022/07/21 00:02:42;;;;;;;2.78;1.90;;;;;;;;;;5117793;27;20031;-76
2022/07/21 00:05:08;;;;;;;3.92;2.10;;;;;;;;;;5134690;27;20381;-77
2022/07/21 00:07:33;;;;;;;8.20;2.03;;;;;;;;;;5136069;27;20069;-76
2022/07/21 00:09:59;;;;;;;3.88;2.15;;;;;;;;;;5136354;27;20031;-76
2022/07/21 00:12:24;;;;;;;9.10;2.30;;;;;;;;;;5135823;27;20553;-76
2022/07/21 00:14:50;;;;;;;6.43;2.45;;;;;;;;;;5134512;27;20054;-76
2022/07/21 00:17:15;;;;;;;4.32;2.65;;;;;;;;;;5134635;27;20477;-76
2022/07/21 00:19:41;;;;;;;4.30;2.30;;;;;;;;;;5134317;27;20031;-76
2022/07/21 00:22:06;;;;;;;3.70;2.72;;;;;;;;;;5135783;27;20031;-76
2022/07/21 00:24:31;;;;;;;3.92;2.38;;;;;;;;;;5135551;27;20544;-76
2022/07/21 00:26:57;;;;;;;8.30;2.60;;;;;;;;;;5134204;27;20026;-76
2022/07/21 00:29:22;;;;;;;5.93;2.60;;;;;;;;;;5117302;27;20091;-77
2022/07/21 00:31:47;;;;;;;4.18;2.50;;;;;;;;;;5135704;27;20027;-76
2022/07/21 00:34:14;;;;;;;4.78;2.45;;;;;;;;;;5134372;27;20039;-76
2022/07/21 00:36:40;;;;;;;6.22;2.55;;;;;;;;;;5135701;27;20058;-77
2022/07/21 00:39:05;;;;;;;3.88;2.35;;;;;;;;;;5135409;27;20035;-76
2022/07/21 00:41:30;;;;;;;4.72;2.50;;;;;;;;;;5135067;27;20055;-76
2022/07/21 00:43:56;;;;;;;3.80;2.40;;;;;;;;;;5135149;27;20056;-76
2022/07/21 00:46:21;;;;;;;5.93;2.50;;;;;;;;;;5135215;27;20031;-76
2022/07/21 00:48:47;;;;;;;3.60;2.50;;;;;;;;;;5133942;27;20034;-76
2022/07/21 00:51:13;;;;;;;5.65;2.65;;;;;;;;;;5134871;27;20031;-76
2022/07/21 00:53:38;;;;;;;4.72;2.80;;;;;;;;;;5116529;27;20062;-76
2022/07/21 00:56:04;;;;;;;6.13;2.65;;;;;;;;;;5133883;27;20046;-75
2022/07/21 00:58:30;;;;;;;5.82;2.90;;;;;;;;;;5135127;27;20476;-75
2022/07/21 01:00:56;;;;;;;7.47;3.10;;;;;;;;;;5134981;27;20109;-75
2022/07/21 01:03:21;;;;;;;5.68;2.95;;;;;;;;;;5133925;27;20404;-75
2022/07/21 01:05:47;;;;;;;6.25;3.17;;;;;;;;;;5145207;27;20042;-76
2022/07/21 01:08:13;;;;;;;8.68;3.10;;;;;;;;;;5155581;27;20083;-76
2022/07/21 01:10:39;;;;;;;9.15;3.08;;;;;;;;;;5155399;27;20018;-76
2022/07/21 01:13:06;;;;;;;4.85;2.63;;;;;;;;;;5154496;27;20452;-77
2022/07/21 01:15:31;;;;;;;6.00;3.17;;;;;;;;;;5155709;27;20034;-76
2022/07/21 01:17:57;;;;;;;4.88;2.92;;;;;;;;;;5155671;27;20042;-76
2022/07/21 01:20:24;;;;;;;5.50;2.83;;;;;;;;;;5155707;27;20035;-76
2022/07/21 01:22:55;;;;;;;7.65;3.42;;;;;;;;;;5153987;27;20034;-77
2022/07/21 01:25:22;;;;;;;4.53;2.78;;;;;;;;;;5136859;27;20073;-76
2022/07/21 01:27:47;;;;;;;3.95;2.63;;;;;;;;;;5136818;27;20035;-76
2022/07/21 01:30:14;;;;;;;4.63;3.08;;;;;;;;;;5136407;27;20037;-76
2022/07/21 01:32:40;;;;;;;9.57;3.00;;;;;;;;;;5155276;27;20093;-76
2022/07/21 01:35:09;;;;;;;5.18;2.95;;;;;;;;;;5126838;27;20393;-76
2022/07/21 01:37:39;;;;;;;7.38;3.03;;;;;;;;;;5113679;28;20401;-76
2022/07/21 01:42:51;;;;;;;;;;;;;;;;;;5114529;28;20031;-77
2022/07/21 01:45:17;;;;;;;6.65;2.90;;;;;;;;;;5113666;28;19919;-76
2022/07/21 01:47:42;;;;;;;5.80;3.25;;;;;;;;;;5114039;28;20036;-76
2022/07/21 01:50:08;;;;;;;5.25;3.20;;;;;;;;;;5112116;28;20042;-76
2022/07/21 01:52:33;;;;;;;5.63;2.97;;;;;;;;;;5095166;28;20031;-76
2022/07/21 01:54:58;;;;;;;5.35;2.35;;;;;;;;;;5113679;28;20031;-76
2022/07/21 01:57:24;;;;;;;4.53;2.50;;;;;;;;;;5112522;28;20452;-76
2022/07/21 01:59:49;;;;;;;4.70;2.88;;;;;;;;;;5113772;28;20042;-76
2022/07/21 02:02:15;;;;;;;4.57;2.95;;;;;;;;;;5113850;28;20118;-76
2022/07/21 02:04:40;;;;;;;4.25;2.75;;;;;;;;;;5118926;27;20118;-76
2022/07/21 02:07:06;;;;;;;5.15;2.90;;;;;;;;;;5136025;27;20031;-76
2022/07/21 02:09:32;;;;;;;3.78;2.50;;;;;;;;;;5136729;27;20030;-76
2022/07/21 02:11:57;;;;;;;4.82;2.60;;;;;;;;;;5155128;27;20067;-76
2022/07/21 02:14:22;;;;;;;12.50;3.33;;;;;;;;;;5153675;27;20121;-77
2022/07/21 02:16:48;;;;;;;7.85;2.90;;;;;;;;;;5137610;27;20041;-77
2022/07/21 02:19:14;;;;;;;5.65;3.22;;;;;;;;;;5137634;27;20070;-77
2022/07/21 02:21:40;;;;;;;6.97;3.15;;;;;;;;;;5153102;27;20035;-77
2022/07/21 02:24:06;;;;;;;7.55;2.92;;;;;;;;;;5153544;27;20031;-77
2022/07/21 02:26:31;;;;;;;10.18;3.00;;;;;;;;;;5136033;27;20023;-77
2022/07/21 02:28:57;;;;;;;3.03;2.50;;;;;;;;;;5136353;27;20118;-77
2022/07/21 02:31:22;;;;;;;4.55;2.97;;;;;;;;;;5154403;27;20057;-79
2022/07/21 02:33:48;;;;;;;4.82;2.80;;;;;;;;;;5137154;27;20047;-78
2022/07/21 02:36:13;;;;;;;4.38;2.67;;;;;;;;;;5153719;27;20031;-77
2022/07/21 02:38:39;;;;;;;6.03;3.40;;;;;;;;;;5153950;27;20110;-78
2022/07/21 02:41:05;;;;;;;5.72;3.20;;;;;;;;;;5154783;27;20541;-77
2022/07/21 02:43:30;;;;;;;3.47;2.47;;;;;;;;;;5162696;27;20126;-79
2022/07/21 02:45:56;;;;;;;6.15;3.20;;;;;;;;;;5159655;27;20079;-78
2022/07/21 02:48:21;;;;;;;4.70;2.90;;;;;;;;;;5144510;27;20038;-78
2022/07/21 02:50:46;;;;;;;6.47;3.20;;;;;;;;;;5156918;27;20091;-77
2022/07/21 02:53:18;;;;;;;4.93;3.28;;;;;;;;;;5139411;27;20042;-78
2022/07/21 02:55:44;;;;;;;5.55;3.00;;;;;;;;;;5139415;27;20464;-77
2022/07/21 02:58:14;;;;;;;4.90;3.35;;;;;;;;;;5157229;27;20019;-76
2022/07/21 03:00:53;;;;;;;9.57;3.70;;;;;;;;;;5139483;27;20042;-76
2022/07/21 03:03:20;;;;;;;4.72;3.40;;;;;;;;;;5158030;27;20034;-77
2022/07/21 03:05:45;;;;;;;6.05;3.60;;;;;;;;;;5157985;27;20034;-75
2022/07/21 03:08:11;;;;;;;7.82;3.97;;;;;;;;;;5158042;27;20031;-75
2022/07/21 03:10:38;;;;;;;7.10;3.50;;;;;;;;;;5158023;27;20030;-75
2022/07/21 03:13:04;;;;;;;6.00;3.78;;;;;;;;;;5158240;27;20038;-75
2022/07/21 03:15:30;;;;;;;8.80;4.78;;;;;;;;;;5143010;27;20366;-75
2022/07/21 03:17:56;;;;;;;4.75;3.83;;;;;;;;;;5137567;27;20038;-75
2022/07/21 03:20:26;;;;;;;9.15;4.55;;;;;;;;;;5118770;27;20070;-75
2022/07/21 03:22:52;;;;;;;5.68;3.65;;;;;;;;;;5135713;27;20481;-75
2022/07/21 03:25:18;;;;;;;6.63;4.78;;;;;;;;;;5118672;27;20083;-75
2022/07/21 03:27:45;;;;;;;6.63;4.00;;;;;;;;;;5136887;27;20075;-75
2022/07/21 03:30:11;;;;;;;4.78;3.70;;;;;;;;;;5135646;27;20046;-74
2022/07/21 03:32:37;;;;;;;6.40;3.85;;;;;;;;;;5137176;27;20406;-75
2022/07/21 03:35:04;;;;;;;9.77;4.22;;;;;;;;;;5135499;27;20046;-76
2022/07/21 03:37:29;;;;;;;6.80;4.13;;;;;;;;;;5136722;27;20447;-75
2022/07/21 03:39:55;;;;;;;6.30;4.30;;;;;;;;;;5134624;27;20472;-75
2022/07/21 03:42:20;;;;;;;8.43;4.30;;;;;;;;;;5135676;27;20027;-76
2022/07/21 03:44:46;;;;;;;6.03;4.15;;;;;;;;;;5115495;28;20056;-76
2022/07/21 03:47:12;;;;;;;6.68;4.32;;;;;;;;;;5114673;28;20037;-75
2022/07/21 03:49:37;;;;;;;8.27;4.85;;;;;;;;;;5114606;28;20181;-75
2022/07/21 03:52:03;;;;;;;8.25;4.43;;;;;;;;;;5115895;28;20028;-75
2022/07/21 03:54:28;;;;;;;10.25;4.43;;;;;;;;;;5115490;28;20136;-75
2022/07/21 03:56:53;;;;;;;8.93;4.80;;;;;;;;;;5115598;28;20033;-75
2022/07/21 03:59:19;;;;;;;8.18;4.75;;;;;;;;;;5115334;28;20036;-75
2022/07/21 04:01:44;;;;;;;8.80;4.55;;;;;;;;;;5115565;28;20042;-76
2022/07/21 04:04:10;;;;;;;6.53;4.38;;;;;;;;;;5114332;28;20032;-75
2022/07/21 04:06:35;;;;;;;9.57;4.60;;;;;;;;;;5097462;28;20122;-75
2022/07/21 04:09:01;;;;;;;7.18;4.63;;;;;;;;;;5096863;28;20473;-75
2022/07/21 04:11:26;;;;;;;6.93;4.60;;;;;;;;;;5147657;27;20039;-75
2022/07/21 04:13:52;;;;;;;8.45;4.72;;;;;;;;;;5156804;27;20030;-75
2022/07/21 04:16:17;;;;;;;10.65;5.75;;;;;;;;;;5156382;27;20034;-75
2022/07/21 04:18:42;;;;;;;6.57;4.50;;;;;;;;;;5156160;27;20102;-75
2022/07/21 04:21:08;;;;;;;10.75;5.20;;;;;;;;;;5152169;27;20430;-76
2022/07/21 04:23:33;;;;;;;8.00;4.93;;;;;;;;;;5137625;27;20471;-77
2022/07/21 04:25:59;;;;;;;6.50;4.38;;;;;;;;;;5135742;27;20535;-77
2022/07/21 04:28:24;;;;;;;7.13;4.57;;;;;;;;;;5154773;27;20086;-77
2022/07/21 04:30:50;;;;;;;9.35;4.25;;;;;;;;;;5137243;27;20119;-76
2022/07/21 04:33:15;;;;;;;6.72;4.22;;;;;;;;;;5156138;27;20105;-78
2022/07/21 04:35:41;;;;;;;8.50;5.05;;;;;;;;;;5141371;27;20034;-76
2022/07/21 04:38:09;;;;;;;9.60;5.53;;;;;;;;;;5133144;27;20027;-77
2022/07/21 04:40:34;;;;;;;7.18;4.45;;;;;;;;;;5116615;27;20464;-77
2022/07/21 04:43:00;;;;;;;11.07;5.15;;;;;;;;;;5134435;27;20039;-77
2022/07/21 04:45:25;;;;;;;9.93;4.80;;;;;;;;;;5134233;27;20042;-77
2022/07/21 04:47:54;;;;;;;8.38;5.10;;;;;;;;;;5134600;27;20039;-76
2022/07/21 04:50:23;;;;;;;6.07;4.50;;;;;;;;;;5135477;27;20488;-76
2022/07/21 04:52:49;;;;;;;12.80;4.75;;;;;;;;;;5116958;27;20125;-75
2022/07/21 04:55:15;;;;;;;8.07;5.18;;;;;;;;;;5133990;27;20046;-75
2022/07/21 04:57:44;;;;;;;8.18;5.18;;;;;;;;;;5133804;27;20039;-75
2022/07/21 05:00:12;;;;;;;7.78;5.10;;;;;;;;;;5133714;27;20035;-75
2022/07/21 05:02:37;;;;;;;8.88;5.63;;;;;;;;;;5134376;27;20038;-76
2022/07/21 05:05:04;;;;;;;7.13;5.30;;;;;;;;;;5127288;27;20039;-76
2022/07/21 05:07:29;;;;;;;8.25;5.28;;;;;;;;;;5096944;28;20354;-76
2022/07/21 05:09:56;;;;;;;8.48;5.13;;;;;;;;;;5114280;28;20027;-76
2022/07/21 05:12:22;;;;;;;5.40;4.60;;;;;;;;;;5112391;28;20042;-76
2022/07/21 05:14:48;;;;;;;10.10;5.45;;;;;;;;;;5096343;28;20039;-77
2022/07/21 05:17:13;;;;;;;6.78;5.32;;;;;;;;;;5114008;28;20396;-77
2022/07/21 05:19:38;;;;;;;6.03;5.05;;;;;;;;;;5096480;28;20100;-75
2022/07/21 05:22:04;;;;;;;8.82;5.50;;;;;;;;;;5113980;28;20423;-75
2022/07/21 05:24:29;;;;;;;8.25;4.93;;;;;;;;;;5111921;28;20062;-75
2022/07/21 05:26:54;;;;;;;7.18;5.15;;;;;;;;;;5111794;28;20028;-75
2022/07/21 05:29:20;;;;;;;7.22;5.13;;;;;;;;;;5093637;28;20031;-75
2022/07/21 05:31:45;;;;;;;10.77;5.22;;;;;;;;;;5112552;28;20038;-75
2022/07/21 05:34:11;;;;;;;10.00;5.10;;;;;;;;;;5112826;28;20035;-76
2022/07/21 05:36:36;;;;;;;6.68;4.70;;;;;;;;;;5112591;27;20425;-77
2022/07/21 05:39:03;;;;;;;5.82;4.28;;;;;;;;;;5113083;28;20019;-76
2022/07/21 05:41:28;;;;;;;8.95;5.03;;;;;;;;;;5111767;28;20039;-76
2022/07/21 05:43:53;;;;;;;6.22;5.15;;;;;;;;;;5110994;28;20106;-76
2022/07/21 05:46:19;;;;;;;7.05;5.10;;;;;;;;;;5110654;28;20594;-76
2022/07/21 05:48:44;;;;;;;6.30;5.38;;;;;;;;;;5110542;28;20468;-75
2022/07/21 05:51:09;;;;;;;5.43;4.30;;;;;;;;;;5111157;28;20054;-76
2022/07/21 05:53:35;;;;;;;6.30;5.05;;;;;;;;;;5111272;28;20036;-75
2022/07/21 05:56:00;;;;;;;8.93;5.05;;;;;;;;;;5112197;28;20043;-75
2022/07/21 05:58:26;;;;;;;5.50;4.30;;;;;;;;;;5112151;28;20066;-75
2022/07/21 06:01:08;;;;;;;7.78;5.20;;;;;;;;;;5110853;28;20123;-75
2022/07/21 06:03:37;;;;;;;6.30;4.88;;;;;;;;;;5113586;28;20487;-75
2022/07/21 06:06:03;;;;;;;6.05;5.32;;;;;;;;;;5128053;27;20111;-75
2022/07/21 06:08:29;;;;;;;7.43;5.35;;;;;;;;;;5115985;28;20122;-75
2022/07/21 06:10:55;;;;;;;11.25;6.57;;;;;;;;;;5132836;28;20114;-75
2022/07/21 06:13:20;;;;;;;7.50;5.75;;;;;;;;;;5134306;27;20031;-75
2022/07/21 06:15:46;;;;;;;6.82;5.10;;;;;;;;;;5133026;27;20378;-75
2022/07/21 06:18:11;;;;;;;5.03;4.32;;;;;;;;;;5119720;27;20042;-75
2022/07/21 06:20:37;;;;;;;6.32;4.78;;;;;;;;;;5138183;27;20111;-75
2022/07/21 06:23:02;;;;;;;7.63;4.97;;;;;;;;;;5119920;27;20532;-75
2022/07/21 06:25:27;;;;;;;7.05;5.22;;;;;;;;;;5138014;27;20058;-75
2022/07/21 06:27:53;;;;;;;7.05;5.20;;;;;;;;;;5119787;27;20491;-75
2022/07/21 06:30:19;;;;;;;6.15;5.00;;;;;;;;;;5138189;27;20079;-75
2022/07/21 06:32:44;;;;;;;6.68;4.65;;;;;;;;;;5138257;27;20461;-75
2022/07/21 06:35:10;;;;;;;6.68;4.72;;;;;;;;;;5126828;27;20376;-75
2022/07/21 06:37:35;;;;;;;6.95;5.43;;;;;;;;;;5140335;27;20038;-75
2022/07/21 06:40:02;;;;;;;7.75;4.68;;;;;;;;;;5158462;27;20567;-75
2022/07/21 06:42:28;;;;;;;6.60;5.00;;;;;;;;;;5140012;27;20042;-75
2022/07/21 06:44:53;;;;;;;5.00;4.45;;;;;;;;;;5140230;27;20045;-75
2022/07/21 06:47:19;;;;;;;9.90;4.75;;;;;;;;;;5158417;27;20097;-75
2022/07/21 06:49:44;;;;;;;7.43;4.93;;;;;;;;;;5158513;27;20023;-75
2022/07/21 06:52:10;;;;;;;5.32;4.20;;;;;;;;;;5158401;27;20031;-75
2022/07/21 06:54:35;;;;;;;6.82;4.60;;;;;;;;;;5158285;27;20046;-75
2022/07/21 06:57:00;;;;;;;5.03;3.95;;;;;;;;;;5158269;27;20039;-75
2022/07/21 06:59:26;;;;;;;5.07;3.85;;;;;;;;;;5158247;27;20113;-75
2022/07/21 07:01:51;;;;;;;6.30;4.25;;;;;;;;;;5157135;27;20066;-75
2022/07/21 07:04:17;;;;;;;7.00;4.10;;;;;;;;;;5158255;27;20035;-75
2022/07/21 07:06:42;;;;;;;7.95;4.53;;;;;;;;;;5138908;27;20031;-75
2022/07/21 07:09:07;;;;;;;5.30;3.90;;;;;;;;;;5137367;27;20042;-75
2022/07/21 07:11:36;;;;;;;7.80;3.92;;;;;;;;;;5137313;27;20031;-75
2022/07/21 07:14:01;;;;;;;5.18;3.67;;;;;;;;;;5137164;27;20095;-75
2022/07/21 07:16:26;;;;;;;5.70;4.60;;;;;;;;;;5136850;27;20122;-76
2022/07/21 07:18:52;;;;;;;4.25;3.60;;;;;;;;;;5134710;27;20088;-76
2022/07/21 07:21:17;;;;;;;6.00;4.07;;;;;;;;;;5118813;27;20034;-75
2022/07/21 07:23:43;;;;;;;5.38;3.90;;;;;;;;;;5118285;27;20436;-75
2022/07/21 07:26:08;;;;;;;5.43;3.90;;;;;;;;;;5136850;27;20035;-76
2022/07/21 07:28:34;;;;;;;6.03;3.53;;;;;;;;;;5134961;27;20043;-75
2022/07/21 07:30:59;;;;;;;8.55;4.13;;;;;;;;;;5137033;27;20038;-75
2022/07/21 07:33:25;;;;;;;3.88;3.47;;;;;;;;;;5137136;27;20035;-75
2022/07/21 07:35:51;;;;;;;4.55;3.50;;;;;;;;;;5135223;27;20058;-75
2022/07/21 07:38:17;;;;;;;10.00;4.20;;;;;;;;;;5135169;27;20023;-75
2022/07/21 07:40:42;;;;;;;5.80;3.60;;;;;;;;;;5136778;27;20047;-75
2022/07/21 07:43:08;;;;;;;10.40;3.85;;;;;;;;;;5142720;27;20114;-76
2022/07/21 07:45:37;;;;;;;8.02;3.28;;;;;;;;;;5155897;27;20037;-75
2022/07/21 07:48:04;;;;;;;4.25;3.22;;;;;;;;;;5156809;27;20081;-75
2022/07/21 07:50:29;;;;;;;4.00;3.22;;;;;;;;;;5157316;27;20102;-75
2022/07/21 07:52:55;;;;;;;4.55;3.22;;;;;;;;;;5157268;27;20046;-75
2022/07/21 07:55:20;;;;;;;5.85;3.22;;;;;;;;;;5155400;27;20090;-75
2022/07/21 07:57:46;;;;;;;4.35;3.08;;;;;;;;;;5156932;27;20448;-76
2022/07/21 08:00:17;;;;;;;4.82;2.95;;;;;;;;;;5155645;27;20042;-75
2022/07/21 08:02:42;;;;;;;6.93;3.15;;;;;;;;;;5156007;27;20121;-74
2022/07/21 08:05:09;;;;;;;5.40;2.63;;;;;;;;;;5156880;27;20084;-75
2022/07/21 08:07:38;;;;;;;4.50;2.40;;;;;;;;;;5155013;27;20046;-75
2022/07/21 08:10:09;;;;;;;4.88;2.38;;;;;;;;;;5156746;27;20035;-75
2022/07/21 08:12:36;;;;;;;4.13;2.42;;;;;;;;;;5138227;27;20129;-75
2022/07/21 08:15:02;;;;;;;6.43;3.03;;;;;;;;;;5141756;27;20156;-75
2022/07/21 08:17:28;;;;;;;5.60;2.60;;;;;;;;;;5097407;28;20035;-75
2022/07/21 08:19:53;;;;;;;6.07;2.40;;;;;;;;;;5114270;28;20385;-75
2022/07/21 08:22:19;;;;;;;5.72;2.78;;;;;;;;;;5114120;28;20404;-75
2022/07/21 08:24:44;;;;;;;4.30;2.60;;;;;;;;;;5113923;28;20111;-75
2022/07/21 08:27:10;;;;;;;6.82;2.60;;;;;;;;;;5113910;28;20035;-75
2022/07/21 08:29:35;;;;;;;3.90;2.45;;;;;;;;;;5114843;27;20089;-76
2022/07/21 08:32:01;;;;;;;5.68;2.95;;;;;;;;;;5115235;28;20039;-75
2022/07/21 08:34:27;;;;;;;9.63;3.20;;;;;;;;;;5115190;28;20039;-75
2022/07/21 08:36:53;;;;;;;7.10;2.60;;;;;;;;;;5113532;28;20040;-76
2022/07/21 08:39:19;;;;;;;5.30;2.97;;;;;;;;;;5115015;28;20028;-75
2022/07/21 08:41:46;;;;;;;5.28;3.03;;;;;;;;;;5096757;28;20043;-75
2022/07/21 08:44:12;;;;;;;6.07;3.17;;;;;;;;;;5115106;28;20358;-75
2022/07/21 08:46:40;;;;;;;5.05;2.88;;;;;;;;;;5114544;28;20175;-75
2022/07/21 08:49:06;;;;;;;4.90;2.92;;;;;;;;;;5114618;28;20070;-75
2022/07/21 08:51:33;;;;;;;4.68;3.20;;;;;;;;;;5114933;28;20097;-75
2022/07/21 08:53:59;;;;;;;4.25;3.40;;;;;;;;;;5096602;28;20469;-75
2022/07/21 08:56:24;;;;;;;5.55;2.92;;;;;;;;;;5113618;28;20034;-75
2022/07/21 08:58:50;;;;;;;5.10;3.50;;;;;;;;;;5114278;28;20102;-75
2022/07/21 09:01:15;;;;;;;4.45;3.25;;;;;;;;;;5114412;28;20369;-75
2022/07/21 09:03:41;;;;;;;3.25;2.92;;;;;;;;;;5114439;28;20062;-75
2022/07/21 09:06:07;;;;;;;5.22;3.20;;;;;;;;;;5114281;28;20035;-75
2022/07/21 09:08:44;;;;;;;3.92;2.90;;;;;;;;;;5113095;28;20106;-75
2022/07/21 09:11:10;;;;;;;3.63;2.55;;;;;;;;;;5113947;28;20042;-76
2022/07/21 09:13:36;;;;;;;5.18;3.15;;;;;;;;;;5112726;28;20032;-76
2022/07/21 09:16:02;;;;;;;4.32;2.83;;;;;;;;;;5096004;28;20066;-76
2022/07/21 09:18:27;;;;;;;3.40;2.60;;;;;;;;;;5095875;28;20028;-76
2022/07/21 09:20:53;;;;;;;4.13;3.20;;;;;;;;;;5095764;28;20147;-76
2022/07/21 09:23:22;;;;;;;5.63;3.10;;;;;;;;;;5111837;28;20493;-76
2022/07/21 09:25:51;;;;;;;5.82;3.35;;;;;;;;;;5112573;28;20031;-77
2022/07/21 09:28:20;;;;;;;5.35;2.97;;;;;;;;;;5113826;28;20069;-76
2022/07/21 09:30:57;;;;;;;3.90;2.70;;;;;;;;;;5114387;28;20127;-77
2022/07/21 09:33:23;;;;;;;3.95;2.90;;;;;;;;;;5114318;28;20035;-75
2022/07/21 09:35:56;;;;;;;3.42;2.67;;;;;;;;;;5114167;28;20545;-77
2022/07/21 09:38:22;;;;;;;2.97;2.70;;;;;;;;;;5113645;28;20027;-76
2022/07/21 09:40:48;;;;;;;4.88;2.40;;;;;;;;;;5095413;28;20044;-76
2022/07/21 09:43:41;;;;;;;7.65;2.85;;;;;;;;;;5113632;28;20035;-76
2022/07/21 09:46:13;;;;;;;4.03;2.75;;;;;;;;;;5113685;28;20431;-76
2022/07/21 09:48:40;;;;;;;3.40;2.38;;;;;;;;;;5113479;28;20039;-76
2022/07/21 09:51:22;;;;;;;4.30;2.67;;;;;;;;;;5113888;28;20047;-77
2022/07/21 09:54:01;;;;;;;16.35;4.50;;;;;;;;;;5095450;28;20036;-76
2022/07/21 09:56:33;;;;;;;10.43;3.65;;;;;;;;;;5112178;28;20035;-75
2022/07/21 09:59:00;;;;;;;17.88;4.20;;;;;;;;;;5112356;28;20038;-76
2022/07/21 10:01:27;;;;;;;15.07;4.68;;;;;;;;;;5113735;28;20046;-76
2022/07/21 10:03:53;;;;;;;6.45;3.90;;;;;;;;;;5115616;28;20031;-78
2022/07/21 10:06:22;;;;;;;5.13;3.83;;;;;;;;;;5119197;28;20046;-77
2022/07/21 10:08:49;;;;;;;5.72;4.05;;;;;;;;;;5113141;28;20038;-77
2022/07/21 10:11:15;;;;;;;9.45;3.50;;;;;;;;;;5095125;28;20031;-76
2022/07/21 10:13:40;;;;;;;6.15;4.22;;;;;;;;;;5113275;28;20023;-77
2022/07/21 10:16:10;;;;;;;6.68;3.63;;;;;;;;;;5113411;28;20039;-77
2022/07/21 10:19:00;;;;;;;5.13;3.50;;;;;;;;;;5095103;28;20388;-76
2022/07/21 10:21:48;;;;;;;7.03;3.70;;;;;;;;;;5112376;28;20032;-76
2022/07/21 10:24:14;;;;;;;6.22;3.97;;;;;;;;;;5112177;28;20035;-76
2022/07/21 10:27:00;;;;;;;12.02;4.22;;;;;;;;;;5111909;28;20126;-75
2022/07/21 10:29:47;;;;;;;8.65;4.22;;;;;;;;;;5113509;28;20069;-76
2022/07/21 10:32:14;;;;;;;7.18;3.85;;;;;;;;;;5112140;28;20481;-76
2022/07/21 10:34:40;;;;;;;5.60;3.47;;;;;;;;;;5113345;28;20047;-76
2022/07/21 10:37:05;;;;;;;10.45;4.38;;;;;;;;;;5128671;27;20031;-76
2022/07/21 10:39:33;;;;;;;9.10;4.00;;;;;;;;;;5132517;27;20039;-76
2022/07/21 10:42:00;;;;;;;6.78;3.97;;;;;;;;;;5114951;27;20533;-76
2022/07/21 10:44:29;;;;;;;6.68;4.03;;;;;;;;;;5132519;27;20387;-76
2022/07/21 10:46:59;;;;;;;9.65;3.65;;;;;;;;;;5134074;27;20046;-76
2022/07/21 10:49:43;;;;;;;5.20;3.72;;;;;;;;;;5133791;27;20035;-76
2022/07/21 10:52:41;;;;;;;8.40;3.60;;;;;;;;;;5133911;27;20038;-76
2022/07/21 10:55:09;;;;;;;4.55;3.53;;;;;;;;;;5133608;27;20035;-77
2022/07/21 10:57:35;;;;;;;6.82;4.18;;;;;;;;;;5133417;27;20074;-76
2022/07/21 11:00:30;;;;;;;6.45;3.72;;;;;;;;;;5133793;27;20476;-76
2022/07/21 11:03:15;;;;;;;5.18;4.00;;;;;;;;;;5133388;27;20035;-76
2022/07/21 11:06:06;;;;;;;8.50;3.80;;;;;;;;;;5139554;27;20050;-76
2022/07/21 11:08:35;;;;;;;7.63;3.67;;;;;;;;;;5158073;27;20380;-76
2022/07/21 11:11:12;;;;;;;4.57;3.35;;;;;;;;;;5156523;27;20039;-75
2022/07/21 11:14:09;;;;;;;4.47;3.17;;;;;;;;;;5156669;27;20054;-75
2022/07/21 11:16:41;;;;;;;4.30;2.80;;;;;;;;;;5139463;27;20022;-75
2022/07/21 11:19:31;;;;;;;2.90;2.10;;;;;;;;;;5157935;27;20023;-76
2022/07/21 11:22:00;;;;;;;2.78;1.70;;;;;;;;;;5148176;27;20066;-77
2022/07/21 11:24:26;;;;;;;3.65;1.98;;;;;;;;;;5137097;27;20063;-76
2022/07/21 11:27:00;;;;;;;3.10;1.92;;;;;;;;;;5136469;27;20046;-75
2022/07/21 11:29:26;;;;;;;6.45;2.35;;;;;;;;;;5135686;27;20084;-76
2022/07/21 11:31:52;;;;;;;3.92;2.10;;;;;;;;;;5135336;27;20118;-76
2022/07/21 11:34:17;;;;;;;3.13;2.25;;;;;;;;;;5136672;27;20038;-76
2022/07/21 11:36:43;;;;;;;3.70;2.20;;;;;;;;;;5135411;27;20094;-76
2022/07/21 11:39:11;;;;;;;2.38;1.67;;;;;;;;;;5118471;27;20031;-76
2022/07/21 11:41:39;;;;;;;2.35;1.67;;;;;;;;;;5136453;27;20051;-76
2022/07/21 11:44:06;;;;;;;2.05;1.70;;;;;;;;;;5136620;27;20035;-76
2022/07/21 11:46:49;;;;;;;2.58;1.85;;;;;;;;;;5118248;27;20096;-75
2022/07/21 11:49:15;;;;;;;4.00;2.10;;;;;;;;;;5118017;27;20045;-76
2022/07/21 11:51:48;;;;;;;3.03;1.98;;;;;;;;;;5136742;27;20026;-76
2022/07/21 11:54:25;;;;;;;2.13;1.90;;;;;;;;;;5136290;27;20071;-76
2022/07/21 11:56:51;;;;;;;3.30;2.03;;;;;;;;;;5134704;27;20041;-74
2022/07/21 11:59:17;;;;;;;4.25;2.00;;;;;;;;;;5135677;27;20031;-74
2022/07/21 12:01:52;;;;;;;3.05;1.90;;;;;;;;;;5136358;27;20034;-74
2022/07/21 12:04:27;;;;;;;4.50;2.20;;;;;;;;;;5135981;27;20027;-74
2022/07/21 12:06:52;;;;;;;3.13;2.05;;;;;;;;;;5148057;27;20039;-74
2022/07/21 12:09:18;;;;;;;4.00;2.10;;;;;;;;;;5153287;27;20023;-74
2022/07/21 12:11:43;;;;;;;9.95;6.40;;;;;;;;;;5146357;27;20517;-73
2022/07/21 12:14:09;;;;;;;16.52;12.85;;;;;;;;;;5140148;27;20037;-74
2022/07/21 12:16:48;;;;;;;13.52;7.90;;;;;;;;;;5117652;27;20414;-74
2022/07/21 12:19:16;;;;;;;3.80;2.80;;;;;;;;;;5117427;27;20031;-74
2022/07/21 12:21:50;;;;;;;3.60;2.05;;;;;;;;;;5117456;27;20146;-74
2022/07/21 12:24:17;;;;;;;2.72;1.95;;;;;;;;;;5134133;27;20400;-75
2022/07/21 12:26:44;;;;;;;5.97;1.73;;;;;;;;;;5135882;27;20027;-74
2022/07/21 12:29:09;;;;;;;3.88;2.20;;;;;;;;;;5133987;27;20038;-74
2022/07/21 12:31:36;;;;;;;3.92;2.00;;;;;;;;;;5133582;27;20034;-73
2022/07/21 12:34:14;;;;;;;3.45;2.25;;;;;;;;;;5140903;27;20468;-74
2022/07/21 12:36:41;;;;;;;5.35;2.22;;;;;;;;;;5155819;27;20039;-74
2022/07/21 12:42:04;;;;;;;2.75;1.70;;;;;;;;;;5154838;27;20050;-73
2022/07/21 12:44:31;;;;;;;2.78;2.30;;;;;;;;;;5156029;27;20129;-74
2022/07/21 12:46:56;;;;;;;2.08;1.80;;;;;;;;;;5155842;27;20062;-73
2022/07/21 12:49:22;;;;;;;3.40;2.35;;;;;;;;;;5155823;27;20081;-74
2022/07/21 12:51:57;;;;;;;4.10;2.53;;;;;;;;;;5156117;27;20035;-74
2022/07/21 12:54:23;;;;;;;4.88;2.00;;;;;;;;;;5137260;27;20035;-73
2022/07/21 12:56:48;;;;;;;2.38;1.67;;;;;;;;;;5155723;27;20068;-74
2022/07/21 12:59:14;;;;;;;3.05;1.90;;;;;;;;;;5156045;27;20037;-73
2022/07/21 13:01:40;;;;;;;5.97;1.90;;;;;;;;;;5154237;27;20487;-74
2022/07/21 13:04:06;;;;;;;2.20;1.80;;;;;;;;;;5146803;27;20027;-73
2022/07/21 13:06:31;;;;;;;6.82;2.13;;;;;;;;;;5135202;27;20035;-73
2022/07/21 13:08:57;;;;;;;2.42;2.05;;;;;;;;;;5134509;27;20035;-73
2022/07/21 13:11:22;;;;;;;2.97;1.83;;;;;;;;;;5135050;27;20035;-75
2022/07/21 13:13:50;;;;;;;4.88;1.60;;;;;;;;;;5134393;27;20139;-73
2022/07/21 13:16:17;;;;;;;2.85;1.88;;;;;;;;;;5133300;27;20392;-74
2022/07/21 13:18:43;;;;;;;1.95;1.50;;;;;;;;;;5133502;27;20434;-74
2022/07/21 13:21:12;;;;;;;2.22;1.60;;;;;;;;;;5120081;27;20042;-74
2022/07/21 13:23:37;;;;;;;2.60;1.80;;;;;;;;;;5109646;27;20031;-74
2022/07/21 13:26:03;;;;;;;2.10;1.48;;;;;;;;;;5108702;28;20023;-75
2022/07/21 13:28:29;;;;;;;2.53;1.70;;;;;;;;;;5128151;27;20058;-74
2022/07/21 13:30:54;;;;;;;2.63;1.70;;;;;;;;;;5112592;28;20126;-74
2022/07/21 13:33:19;;;;;;;4.13;1.70;;;;;;;;;;5124229;27;20378;-74
2022/07/21 13:35:45;;;;;;;4.57;1.60;;;;;;;;;;5109292;27;20024;-74
2022/07/21 13:38:11;;;;;;;2.47;1.65;;;;;;;;;;5116332;27;20076;-74
2022/07/21 13:40:37;;;;;;;1.88;1.58;;;;;;;;;;5115300;28;20055;-74
2022/07/21 13:43:04;;;;;;;3.35;1.90;;;;;;;;;;5132829;27;20043;-74
2022/07/21 13:45:29;;;;;;;4.75;1.63;;;;;;;;;;5115385;27;20035;-74
2022/07/21 13:47:54;;;;;;;4.43;2.72;;;;;;;;;;5134389;27;20038;-74
2022/07/21 13:50:20;;;;;;;5.95;1.88;;;;;;;;;;5133370;27;20117;-74
2022/07/21 13:52:45;;;;;;;2.50;1.50;;;;;;;;;;5132397;27;20035;-74
2022/07/21 13:55:11;;;;;;;3.95;1.83;;;;;;;;;;5132020;27;20057;-74
2022/07/21 13:57:36;;;;;;;2.38;1.80;;;;;;;;;;5133350;27;20074;-74
2022/07/21 14:00:07;;;;;;;3.45;2.05;;;;;;;;;;5132933;28;20092;-74
2022/07/21 14:02:33;;;;;;;2.20;1.77;;;;;;;;;;5133219;28;20042;-74
2022/07/21 14:04:59;;;;;;;3.75;1.70;;;;;;;;;;5122002;27;20113;-74
2022/07/21 14:07:24;;;;;;;2.53;1.83;;;;;;;;;;5153674;27;20091;-74
2022/07/21 14:09:50;;;;;;;4.50;2.25;;;;;;;;;;5154710;27;20054;-74
2022/07/21 14:12:15;;;;;;;2.40;1.67;;;;;;;;;;5153602;27;20126;-74
2022/07/21 14:14:41;;;;;;;2.45;1.80;;;;;;;;;;5154830;27;20070;-74
2022/07/21 14:17:06;;;;;;;1.98;1.70;;;;;;;;;;5154912;27;20116;-75
2022/07/21 14:19:32;;;;;;;2.33;1.65;;;;;;;;;;5154598;27;20038;-75
2022/07/21 14:21:57;;;;;;;3.28;2.08;;;;;;;;;;5153606;27;20038;-74
2022/07/21 14:27:06;;;;;;;2.67;1.50;;;;;;;;;;5154415;27;20423;-74
2022/07/21 14:29:32;;;;;;;3.78;1.70;;;;;;;;;;5152888;27;20031;-74
2022/07/21 14:31:58;;;;;;;2.33;1.80;;;;;;;;;;5153379;27;20476;-74
2022/07/21 14:34:23;;;;;;;3.65;1.75;;;;;;;;;;5150765;27;20102;-74
2022/07/21 14:36:51;;;;;;;4.25;2.10;;;;;;;;;;5114014;27;20031;-75
2022/07/21 14:39:17;;;;;;;2.88;1.70;;;;;;;;;;5136371;27;20024;-76
2022/07/21 14:41:44;;;;;;;2.80;1.80;;;;;;;;;;5137577;27;20455;-76
2022/07/21 14:44:10;;;;;;;5.07;1.83;;;;;;;;;;5136392;27;20035;-75
2022/07/21 14:46:35;;;;;;;4.95;1.83;;;;;;;;;;5137628;27;20080;-75
2022/07/21 14:49:01;;;;;;;1.92;1.50;;;;;;;;;;5137657;27;20058;-75
2022/07/21 14:51:27;;;;;;;4.35;1.50;;;;;;;;;;5137518;27;20067;-75